sensor_id;sensor_type;location;lat;lon;timestamp;pressure;altitude;pressure_sealevel;temperature;humidity
58295;BME280;45705;55.592;37.460;2023-03-13T00:01:19;97721.91;;;-4.65;100.00
58295;BME280;45705;55.592;37.460;2023-03-13T00:03:45;97713.47;;;-4.62;100.00
58295;BME280;45705;55.592;37.460;2023-03-13T00:06:11;97733.84;;;-4.85;100.00
58295;BME280;45705;55.592;37.460;2023-03-13T00:08:37;97734.06;;;-4.69;100.00
58295;BME280;45705;55.592;37.460;2023-03-13T00:11:08;97734.81;;;-4.91;100.00
58295;BME280;45705;55.592;37.460;2023-03-13T00:13:34;97740.13;;;-4.91;100.00
58295;BME280;45705;55.592;37.460;2023-03-13T00:16:12;97742.44;;;-4.78;100.00
58295;BME280;45705;55.592;37.460;2023-03-13T00:18:38;97751.06;;;-4.65;100.00
58295;BME280;45705;55.592;37.460;2023-03-13T00:21:07;97741.78;;;-4.85;100.00
58295;BME280;45705;55.592;37.460;2023-03-13T00:23:35;97747.25;;;-4.75;100.00
58295;BME280;45705;55.592;37.460;2023-03-13T00:26:06;97741.41;;;-4.77;100.00
58295;BME280;45705;55.592;37.460;2023-03-13T00:28:33;97755.25;;;-4.69;100.00
58295;BME280;45705;55.592;37.460;2023-03-13T00:31:01;97758.00;;;-4.64;100.00
58295;BME280;45705;55.592;37.460;2023-03-13T00:33:27;97767.16;;;-4.72;100.00
58295;BME280;45705;55.592;37.460;2023-03-13T00:36:00;97766.25;;;-5.00;100.00
58295;BME280;45705;55.592;37.460;2023-03-13T00:38:27;97771.88;;;-4.96;100.00
58295;BME280;45705;55.592;37.460;2023-03-13T00:41:06;97792.72;;;-4.83;100.00
58295;BME280;45705;55.592;37.460;2023-03-13T00:43:33;97787.91;;;-5.20;100.00
58295;BME280;45705;55.592;37.460;2023-03-13T00:46:00;97788.88;;;-4.92;100.00
58295;BME280;45705;55.592;37.460;2023-03-13T00:48:26;97792.56;;;-4.93;100.00
58295;BME280;45705;55.592;37.460;2023-03-13T00:50:52;97794.00;;;-5.02;100.00
58295;BME280;45705;55.592;37.460;2023-03-13T00:53:19;97790.97;;;-4.94;100.00
58295;BME280;45705;55.592;37.460;2023-03-13T00:55:51;97805.41;;;-5.19;100.00
58295;BME280;45705;55.592;37.460;2023-03-13T00:58:18;97789.50;;;-4.85;100.00
58295;BME280;45705;55.592;37.460;2023-03-13T01:00:43;97818.75;;;-4.80;100.00
58295;BME280;45705;55.592;37.460;2023-03-13T01:03:09;97805.25;;;-4.78;100.00
58295;BME280;45705;55.592;37.460;2023-03-13T01:05:35;97821.66;;;-4.64;100.00
58295;BME280;45705;55.592;37.460;2023-03-13T01:08:01;97817.69;;;-4.62;100.00
58295;BME280;45705;55.592;37.460;2023-03-13T01:10:26;97832.34;;;-4.59;100.00
58295;BME280;45705;55.592;37.460;2023-03-13T01:12:52;97842.06;;;-4.82;100.00
58295;BME280;45705;55.592;37.460;2023-03-13T01:15:18;97837.41;;;-4.75;100.00
58295;BME280;45705;55.592;37.460;2023-03-13T01:17:44;97835.63;;;-4.86;100.00
58295;BME280;45705;55.592;37.460;2023-03-13T01:20:11;97846.22;;;-5.03;100.00
58295;BME280;45705;55.592;37.460;2023-03-13T01:22:37;97853.00;;;-5.24;100.00
58295;BME280;45705;55.592;37.460;2023-03-13T01:25:03;97855.03;;;-5.14;100.00
58295;BME280;45705;55.592;37.460;2023-03-13T01:27:29;97846.97;;;-5.36;100.00
58295;BME280;45705;55.592;37.460;2023-03-13T01:29:56;97874.00;;;-5.05;100.00
58295;BME280;45705;55.592;37.460;2023-03-13T01:32:21;97882.03;;;-5.17;100.00
58295;BME280;45705;55.592;37.460;2023-03-13T01:34:47;97876.00;;;-5.12;100.00
58295;BME280;45705;55.592;37.460;2023-03-13T01:37:13;97884.09;;;-5.19;100.00
58295;BME280;45705;55.592;37.460;2023-03-13T01:39:38;97895.22;;;-5.05;100.00
58295;BME280;45705;55.592;37.460;2023-03-13T01:42:04;97896.81;;;-5.04;100.00
58295;BME280;45705;55.592;37.460;2023-03-13T01:44:52;97900.22;;;-5.21;100.00
58295;BME280;45705;55.592;37.460;2023-03-13T01:47:19;97910.16;;;-5.28;100.00
58295;BME280;45705;55.592;37.460;2023-03-13T01:50:04;97906.25;;;-5.25;100.00
58295;BME280;45705;55.592;37.460;2023-03-13T01:52:49;97912.31;;;-5.13;100.00
58295;BME280;45705;55.592;37.460;2023-03-13T01:55:26;97919.06;;;-5.34;100.00
58295;BME280;45705;55.592;37.460;2023-03-13T01:57:53;97923.97;;;-5.26;100.00
58295;BME280;45705;55.592;37.460;2023-03-13T02:00:25;97935.63;;;-5.27;100.00
58295;BME280;45705;55.592;37.460;2023-03-13T02:02:55;97938.28;;;-5.27;100.00
58295;BME280;45705;55.592;37.460;2023-03-13T02:05:25;97937.53;;;-5.51;100.00
58295;BME280;45705;55.592;37.460;2023-03-13T02:08:00;97955.25;;;-5.51;100.00
58295;BME280;45705;55.592;37.460;2023-03-13T02:10:30;97948.81;;;-5.56;100.00
58295;BME280;45705;55.592;37.460;2023-03-13T02:12:57;97955.72;;;-5.43;100.00
58295;BME280;45705;55.592;37.460;2023-03-13T02:15:26;97963.56;;;-5.60;100.00
58295;BME280;45705;55.592;37.460;2023-03-13T02:17:52;97963.72;;;-5.26;100.00
58295;BME280;45705;55.592;37.460;2023-03-13T02:20:20;97976.44;;;-5.51;100.00
58295;BME280;45705;55.592;37.460;2023-03-13T02:25:41;97981.50;;;-5.38;100.00
58295;BME280;45705;55.592;37.460;2023-03-13T02:28:12;97980.22;;;-5.47;100.00
58295;BME280;45705;55.592;37.460;2023-03-13T02:30:42;97984.16;;;-5.50;100.00
58295;BME280;45705;55.592;37.460;2023-03-13T02:33:10;97992.88;;;-5.38;100.00
58295;BME280;45705;55.592;37.460;2023-03-13T02:35:36;97990.38;;;-5.44;100.00
58295;BME280;45705;55.592;37.460;2023-03-13T02:38:08;98010.75;;;-5.33;100.00
58295;BME280;45705;55.592;37.460;2023-03-13T02:40:38;98014.66;;;-5.47;100.00
58295;BME280;45705;55.592;37.460;2023-03-13T02:43:08;98021.59;;;-5.46;100.00
58295;BME280;45705;55.592;37.460;2023-03-13T02:45:36;98023.97;;;-5.45;100.00
58295;BME280;45705;55.592;37.460;2023-03-13T02:48:03;98019.50;;;-5.44;100.00
58295;BME280;45705;55.592;37.460;2023-03-13T02:50:29;98022.97;;;-5.56;100.00
58295;BME280;45705;55.592;37.460;2023-03-13T02:53:03;98029.88;;;-5.55;100.00
58295;BME280;45705;55.592;37.460;2023-03-13T02:55:36;98039.31;;;-5.59;100.00
58295;BME280;45705;55.592;37.460;2023-03-13T02:58:04;98042.31;;;-5.67;100.00
58295;BME280;45705;55.592;37.460;2023-03-13T03:00:33;98037.59;;;-5.65;100.00
58295;BME280;45705;55.592;37.460;2023-03-13T03:03:00;98038.63;;;-5.66;100.00
58295;BME280;45705;55.592;37.460;2023-03-13T03:05:26;98048.75;;;-5.63;100.00
58295;BME280;45705;55.592;37.460;2023-03-13T03:07:52;98042.88;;;-5.65;100.00
58295;BME280;45705;55.592;37.460;2023-03-13T03:10:18;98046.81;;;-5.56;100.00
58295;BME280;45705;55.592;37.460;2023-03-13T03:12:44;98052.69;;;-5.54;100.00
58295;BME280;45705;55.592;37.460;2023-03-13T03:15:10;98068.13;;;-5.50;100.00
58295;BME280;45705;55.592;37.460;2023-03-13T03:17:40;98073.63;;;-5.64;100.00
58295;BME280;45705;55.592;37.460;2023-03-13T03:20:08;98071.56;;;-5.62;100.00
58295;BME280;45705;55.592;37.460;2023-03-13T03:22:39;98078.94;;;-5.64;100.00
58295;BME280;45705;55.592;37.460;2023-03-13T03:25:06;98076.28;;;-5.64;100.00
58295;BME280;45705;55.592;37.460;2023-03-13T03:27:33;98078.59;;;-5.56;100.00
58295;BME280;45705;55.592;37.460;2023-03-13T03:30:03;98089.75;;;-5.65;100.00
58295;BME280;45705;55.592;37.460;2023-03-13T03:32:31;98098.13;;;-5.68;100.00
58295;BME280;45705;55.592;37.460;2023-03-13T03:34:58;98091.13;;;-5.63;100.00
58295;BME280;45705;55.592;37.460;2023-03-13T03:37:23;98107.34;;;-5.59;100.00
58295;BME280;45705;55.592;37.460;2023-03-13T03:39:49;98105.41;;;-5.64;100.00
58295;BME280;45705;55.592;37.460;2023-03-13T03:42:15;98110.72;;;-5.64;100.00
58295;BME280;45705;55.592;37.460;2023-03-13T03:44:41;98093.63;;;-5.91;100.00
58295;BME280;45705;55.592;37.460;2023-03-13T03:47:08;98107.72;;;-5.67;100.00
58295;BME280;45705;55.592;37.460;2023-03-13T03:49:38;98114.03;;;-5.68;100.00
58295;BME280;45705;55.592;37.460;2023-03-13T03:52:04;98115.06;;;-5.81;100.00
58295;BME280;45705;55.592;37.460;2023-03-13T03:54:35;98121.59;;;-5.84;100.00
58295;BME280;45705;55.592;37.460;2023-03-13T03:57:01;98123.31;;;-5.89;100.00
58295;BME280;45705;55.592;37.460;2023-03-13T03:59:27;98130.38;;;-5.83;100.00
58295;BME280;45705;55.592;37.460;2023-03-13T04:01:59;98132.34;;;-5.67;100.00
58295;BME280;45705;55.592;37.460;2023-03-13T04:04:28;98127.84;;;-5.66;100.00
58295;BME280;45705;55.592;37.460;2023-03-13T04:07:02;98130.84;;;-5.51;100.00
58295;BME280;45705;55.592;37.460;2023-03-13T04:09:30;98128.34;;;-4.58;100.00
58295;BME280;45705;55.592;37.460;2023-03-13T04:11:55;98143.53;;;-3.50;95.73
58295;BME280;45705;55.592;37.460;2023-03-13T04:14:21;98135.78;;;-2.57;87.94
58295;BME280;45705;55.592;37.460;2023-03-13T04:16:48;98136.94;;;-1.99;83.82
58295;BME280;45705;55.592;37.460;2023-03-13T04:19:14;98131.19;;;-1.21;79.02
58295;BME280;45705;55.592;37.460;2023-03-13T04:21:41;98134.59;;;-0.88;75.48
58295;BME280;45705;55.592;37.460;2023-03-13T04:24:16;98147.63;;;-0.44;72.34
58295;BME280;45705;55.592;37.460;2023-03-13T04:26:43;98140.84;;;0.12;68.11
58295;BME280;45705;55.592;37.460;2023-03-13T04:29:09;98140.34;;;0.66;64.89
58295;BME280;45705;55.592;37.460;2023-03-13T04:31:58;98149.16;;;0.77;62.90
58295;BME280;45705;55.592;37.460;2023-03-13T04:34:29;98149.13;;;1.88;58.48
58295;BME280;45705;55.592;37.460;2023-03-13T04:37:06;98155.59;;;1.72;57.66
58295;BME280;45705;55.592;37.460;2023-03-13T04:39:44;98160.50;;;2.54;55.15
58295;BME280;45705;55.592;37.460;2023-03-13T04:42:30;98167.78;;;2.83;52.86
58295;BME280;45705;55.592;37.460;2023-03-13T04:44:55;98172.94;;;3.08;52.34
58295;BME280;45705;55.592;37.460;2023-03-13T04:47:50;98186.94;;;3.29;50.46
58295;BME280;45705;55.592;37.460;2023-03-13T04:50:34;98198.53;;;3.54;50.38
58295;BME280;45705;55.592;37.460;2023-03-13T04:53:23;98202.84;;;3.74;49.13
58295;BME280;45705;55.592;37.460;2023-03-13T04:56:26;98198.66;;;4.87;45.26
58295;BME280;45705;55.592;37.460;2023-03-13T04:59:17;98225.34;;;3.83;48.00
58295;BME280;45705;55.592;37.460;2023-03-13T05:02:01;98222.16;;;3.28;47.55
58295;BME280;45705;55.592;37.460;2023-03-13T05:04:34;98223.69;;;3.87;45.87
58295;BME280;45705;55.592;37.460;2023-03-13T05:07:18;98207.53;;;4.68;45.21
58295;BME280;45705;55.592;37.460;2023-03-13T05:10:02;98218.91;;;4.98;44.06
58295;BME280;45705;55.592;37.460;2023-03-13T05:12:31;98220.16;;;5.80;42.66
58295;BME280;45705;55.592;37.460;2023-03-13T05:15:19;98211.50;;;6.11;42.80
58295;BME280;45705;55.592;37.460;2023-03-13T05:17:55;98218.69;;;6.02;40.43
58295;BME280;45705;55.592;37.460;2023-03-13T05:20:50;98227.38;;;6.13;40.25
58295;BME280;45705;55.592;37.460;2023-03-13T05:23:28;98227.28;;;6.04;38.71
58295;BME280;45705;55.592;37.460;2023-03-13T05:26:02;98220.97;;;7.18;38.27
58295;BME280;45705;55.592;37.460;2023-03-13T05:28:46;98229.34;;;7.39;37.71
58295;BME280;45705;55.592;37.460;2023-03-13T05:31:15;98234.69;;;7.61;37.12
58295;BME280;45705;55.592;37.460;2023-03-13T05:33:59;98236.75;;;7.56;36.53
58295;BME280;45705;55.592;37.460;2023-03-13T05:36:51;98240.78;;;7.67;37.02
58295;BME280;45705;55.592;37.460;2023-03-13T05:39:49;98242.19;;;8.53;35.25
58295;BME280;45705;55.592;37.460;2023-03-13T05:42:18;98245.66;;;7.96;35.69
58295;BME280;45705;55.592;37.460;2023-03-13T05:44:59;98251.38;;;6.64;38.56
58295;BME280;45705;55.592;37.460;2023-03-13T05:47:40;98266.59;;;5.77;39.04
58295;BME280;45705;55.592;37.460;2023-03-13T05:50:29;98260.28;;;6.15;38.39
58295;BME280;45705;55.592;37.460;2023-03-13T05:53:15;98272.50;;;6.62;38.62
58295;BME280;45705;55.592;37.460;2023-03-13T05:55:54;98269.94;;;6.80;38.45
58295;BME280;45705;55.592;37.460;2023-03-13T05:58:55;98276.03;;;7.84;36.10
58295;BME280;45705;55.592;37.460;2023-03-13T06:01:39;98278.41;;;8.17;35.52
58295;BME280;45705;55.592;37.460;2023-03-13T06:04:13;98281.09;;;8.57;35.31
58295;BME280;45705;55.592;37.460;2023-03-13T06:06:39;98283.94;;;7.72;35.93
58295;BME280;45705;55.592;37.460;2023-03-13T06:09:05;98281.16;;;7.95;35.62
58295;BME280;45705;55.592;37.460;2023-03-13T06:11:32;98284.34;;;8.37;34.66
58295;BME280;45705;55.592;37.460;2023-03-13T06:13:59;98286.81;;;8.64;34.69
58295;BME280;45705;55.592;37.460;2023-03-13T06:16:36;98287.66;;;8.16;34.88
58295;BME280;45705;55.592;37.460;2023-03-13T06:19:16;98288.38;;;9.70;33.93
58295;BME280;45705;55.592;37.460;2023-03-13T06:21:42;98294.00;;;8.69;34.65
58295;BME280;45705;55.592;37.460;2023-03-13T06:24:08;98291.75;;;9.50;33.69
58295;BME280;45705;55.592;37.460;2023-03-13T06:26:34;98299.91;;;8.80;35.18
58295;BME280;45705;55.592;37.460;2023-03-13T06:28:59;98291.91;;;9.62;33.69
58295;BME280;45705;55.592;37.460;2023-03-13T06:31:28;98312.19;;;8.77;34.37
58295;BME280;45705;55.592;37.460;2023-03-13T06:33:55;98321.25;;;8.55;34.32
58295;BME280;45705;55.592;37.460;2023-03-13T06:36:21;98310.63;;;9.46;34.03
58295;BME280;45705;55.592;37.460;2023-03-13T06:38:48;98320.28;;;8.51;34.96
58295;BME280;45705;55.592;37.460;2023-03-13T06:41:14;98322.25;;;8.77;35.57
58295;BME280;45705;55.592;37.460;2023-03-13T06:43:40;98315.91;;;9.25;34.42
58295;BME280;45705;55.592;37.460;2023-03-13T06:46:06;98322.09;;;9.17;32.93
58295;BME280;45705;55.592;37.460;2023-03-13T06:48:33;98332.91;;;7.39;35.89
58295;BME280;45705;55.592;37.460;2023-03-13T06:50:59;98330.91;;;7.08;37.73
58295;BME280;45705;55.592;37.460;2023-03-13T06:53:24;98333.69;;;8.74;35.27
58295;BME280;45705;55.592;37.460;2023-03-13T06:55:50;98335.16;;;8.31;35.67
58295;BME280;45705;55.592;37.460;2023-03-13T06:58:17;98339.50;;;8.01;34.95
58295;BME280;45705;55.592;37.460;2023-03-13T07:00:43;98341.25;;;9.29;33.97
58295;BME280;45705;55.592;37.460;2023-03-13T07:03:09;98342.19;;;9.42;34.54
58295;BME280;45705;55.592;37.460;2023-03-13T07:05:36;98337.78;;;10.02;33.28
58295;BME280;45705;55.592;37.460;2023-03-13T07:08:02;98346.84;;;9.41;33.05
58295;BME280;45705;55.592;37.460;2023-03-13T07:10:29;98355.78;;;9.16;34.57
58295;BME280;45705;55.592;37.460;2023-03-13T07:12:55;98362.63;;;9.39;33.64
58295;BME280;45705;55.592;37.460;2023-03-13T07:15:22;98362.72;;;8.82;34.44
58295;BME280;45705;55.592;37.460;2023-03-13T07:17:48;98369.91;;;7.75;35.65
58295;BME280;45705;55.592;37.460;2023-03-13T07:20:14;98385.75;;;7.91;35.25
58295;BME280;45705;55.592;37.460;2023-03-13T07:22:40;98378.09;;;8.15;35.55
58295;BME280;45705;55.592;37.460;2023-03-13T07:25:06;98387.72;;;7.31;36.97
58295;BME280;45705;55.592;37.460;2023-03-13T07:27:32;98395.34;;;7.29;37.23
58295;BME280;45705;55.592;37.460;2023-03-13T07:29:58;98404.25;;;6.65;38.46
58295;BME280;45705;55.592;37.460;2023-03-13T07:32:23;98422.38;;;5.15;41.53
58295;BME280;45705;55.592;37.460;2023-03-13T07:34:49;98425.16;;;4.61;43.98
58295;BME280;45705;55.592;37.460;2023-03-13T07:37:15;98428.16;;;4.84;43.83
58295;BME280;45705;55.592;37.460;2023-03-13T07:39:42;98434.34;;;4.60;45.26
58295;BME280;45705;55.592;37.460;2023-03-13T07:42:11;98432.53;;;4.56;46.32
58295;BME280;45705;55.592;37.460;2023-03-13T07:44:39;98440.56;;;3.68;48.91
58295;BME280;45705;55.592;37.460;2023-03-13T07:47:05;98428.69;;;2.85;49.98
58295;BME280;45705;55.592;37.460;2023-03-13T07:49:31;98445.94;;;3.33;49.23
58295;BME280;45705;55.592;37.460;2023-03-13T07:51:58;98439.59;;;3.53;50.61
58295;BME280;45705;55.592;37.460;2023-03-13T07:54:23;98448.53;;;3.83;49.67
58295;BME280;45705;55.592;37.460;2023-03-13T07:56:49;98460.25;;;3.19;52.78
58295;BME280;45705;55.592;37.460;2023-03-13T07:59:16;98453.31;;;3.07;54.34
58295;BME280;45705;55.592;37.460;2023-03-13T08:01:41;98458.94;;;3.11;53.27
58295;BME280;45705;55.592;37.460;2023-03-13T08:04:11;98463.66;;;2.69;55.10
58295;BME280;45705;55.592;37.460;2023-03-13T08:06:38;98454.28;;;3.22;55.19
58295;BME280;45705;55.592;37.460;2023-03-13T08:09:06;98459.31;;;2.84;54.81
58295;BME280;45705;55.592;37.460;2023-03-13T08:11:32;98466.97;;;2.41;56.28
58295;BME280;45705;55.592;37.460;2023-03-13T08:13:58;98462.13;;;2.38;57.12
58295;BME280;45705;55.592;37.460;2023-03-13T08:16:28;98464.88;;;2.02;58.39
58295;BME280;45705;55.592;37.460;2023-03-13T08:18:56;98467.47;;;2.53;56.06
58295;BME280;45705;55.592;37.460;2023-03-13T08:21:25;98464.31;;;1.94;57.76
58295;BME280;45705;55.592;37.460;2023-03-13T08:23:53;98456.69;;;2.68;56.65
58295;BME280;45705;55.592;37.460;2023-03-13T08:26:21;98465.38;;;1.68;58.60
58295;BME280;45705;55.592;37.460;2023-03-13T08:28:51;98471.28;;;2.16;58.29
58295;BME280;45705;55.592;37.460;2023-03-13T08:31:20;98458.41;;;1.97;58.60
58295;BME280;45705;55.592;37.460;2023-03-13T08:33:46;98472.88;;;1.76;59.60
58295;BME280;45705;55.592;37.460;2023-03-13T08:36:18;98475.59;;;2.02;60.01
58295;BME280;45705;55.592;37.460;2023-03-13T08:38:44;98475.06;;;1.84;61.09
58295;BME280;45705;55.592;37.460;2023-03-13T08:41:12;98475.31;;;1.67;62.23
58295;BME280;45705;55.592;37.460;2023-03-13T08:43:38;98479.31;;;1.70;63.53
58295;BME280;45705;55.592;37.460;2023-03-13T08:46:04;98490.31;;;1.63;63.64
58295;BME280;45705;55.592;37.460;2023-03-13T08:48:29;98484.16;;;1.93;62.63
58295;BME280;45705;55.592;37.460;2023-03-13T08:51:10;98494.56;;;1.54;64.41
58295;BME280;45705;55.592;37.460;2023-03-13T08:53:36;98490.84;;;1.70;63.91
58295;BME280;45705;55.592;37.460;2023-03-13T08:56:03;98499.47;;;0.94;66.73
58295;BME280;45705;55.592;37.460;2023-03-13T08:58:30;98501.19;;;1.26;65.84
58295;BME280;45705;55.592;37.460;2023-03-13T09:01:03;98512.44;;;1.23;65.61
58295;BME280;45705;55.592;37.460;2023-03-13T09:03:29;98514.69;;;1.62;64.59
58295;BME280;45705;55.592;37.460;2023-03-13T09:05:56;98501.81;;;1.53;65.19
58295;BME280;45705;55.592;37.460;2023-03-13T09:08:22;98513.31;;;1.54;64.85
58295;BME280;45705;55.592;37.460;2023-03-13T09:11:07;98517.38;;;1.97;63.34
58295;BME280;45705;55.592;37.460;2023-03-13T09:13:35;98523.81;;;1.91;63.77
58295;BME280;45705;55.592;37.460;2023-03-13T09:16:04;98529.97;;;1.71;64.43
58295;BME280;45705;55.592;37.460;2023-03-13T09:18:30;98556.19;;;0.86;66.90
58295;BME280;45705;55.592;37.460;2023-03-13T09:20:56;98525.97;;;1.69;64.64
58295;BME280;45705;55.592;37.460;2023-03-13T09:23:22;98543.91;;;1.73;64.80
58295;BME280;45705;55.592;37.460;2023-03-13T09:25:51;98546.84;;;1.82;64.15
58295;BME280;45705;55.592;37.460;2023-03-13T09:28:17;98554.63;;;1.73;64.89
58295;BME280;45705;55.592;37.460;2023-03-13T09:30:43;98558.28;;;1.36;66.93
58295;BME280;45705;55.592;37.460;2023-03-13T09:33:09;98541.97;;;1.48;67.46
58295;BME280;45705;55.592;37.460;2023-03-13T09:35:37;98556.03;;;0.65;68.90
58295;BME280;45705;55.592;37.460;2023-03-13T09:38:03;98564.38;;;1.16;67.73
58295;BME280;45705;55.592;37.460;2023-03-13T09:40:37;98563.78;;;0.24;73.20
58295;BME280;45705;55.592;37.460;2023-03-13T09:43:23;98556.72;;;0.45;73.64
58295;BME280;45705;55.592;37.460;2023-03-13T09:45:57;98568.03;;;0.57;71.79
58295;BME280;45705;55.592;37.460;2023-03-13T09:48:31;98562.78;;;1.21;71.49
58295;BME280;45705;55.592;37.460;2023-03-13T09:53:35;98559.56;;;1.18;68.45
58295;BME280;45705;55.592;37.460;2023-03-13T09:56:04;98561.44;;;0.75;69.82
58295;BME280;45705;55.592;37.460;2023-03-13T09:58:33;98568.06;;;1.10;69.43
58295;BME280;45705;55.592;37.460;2023-03-13T10:01:04;98570.69;;;1.00;70.12
58295;BME280;45705;55.592;37.460;2023-03-13T10:03:43;98573.31;;;0.90;71.53
58295;BME280;45705;55.592;37.460;2023-03-13T10:06:18;98585.28;;;1.25;70.83
58295;BME280;45705;55.592;37.460;2023-03-13T10:08:45;98580.28;;;0.91;71.92
58295;BME280;45705;55.592;37.460;2023-03-13T10:11:23;98556.06;;;0.28;75.12
58295;BME280;45705;55.592;37.460;2023-03-13T10:14:10;98587.06;;;0.61;74.33
58295;BME280;45705;55.592;37.460;2023-03-13T10:19:11;98594.53;;;0.59;75.20
58295;BME280;45705;55.592;37.460;2023-03-13T10:21:40;98599.28;;;0.52;75.22
58295;BME280;45705;55.592;37.460;2023-03-13T10:26:42;98596.75;;;0.08;76.32
58295;BME280;45705;55.592;37.460;2023-03-13T10:29:22;98600.22;;;0.03;78.00
58295;BME280;45705;55.592;37.460;2023-03-13T10:31:57;98591.66;;;0.33;76.92
58295;BME280;45705;55.592;37.460;2023-03-13T10:34:44;98577.88;;;-0.13;78.46
58295;BME280;45705;55.592;37.460;2023-03-13T10:37:13;98609.78;;;-0.01;79.46
58295;BME280;45705;55.592;37.460;2023-03-13T10:39:39;98616.53;;;0.07;77.76
58295;BME280;45705;55.592;37.460;2023-03-13T10:42:22;98609.69;;;0.48;77.36
58295;BME280;45705;55.592;37.460;2023-03-13T10:44:54;98605.09;;;0.44;77.06
58295;BME280;45705;55.592;37.460;2023-03-13T10:47:20;98633.94;;;0.09;77.31
58295;BME280;45705;55.592;37.460;2023-03-13T10:49:48;98614.31;;;0.26;75.90
58295;BME280;45705;55.592;37.460;2023-03-13T10:52:30;98635.88;;;-0.13;77.55
58295;BME280;45705;55.592;37.460;2023-03-13T10:55:03;98634.19;;;-0.42;77.26
58295;BME280;45705;55.592;37.460;2023-03-13T10:57:36;98631.69;;;-0.26;76.40
58295;BME280;45705;55.592;37.460;2023-03-13T11:02:56;98640.97;;;-0.56;72.88
58295;BME280;45705;55.592;37.460;2023-03-13T11:07:51;98654.28;;;-0.12;72.81
58295;BME280;45705;55.592;37.460;2023-03-13T11:10:22;98650.94;;;0.25;73.02
58295;BME280;45705;55.592;37.460;2023-03-13T11:12:51;98652.94;;;0.40;72.30
58295;BME280;45705;55.592;37.460;2023-03-13T11:15:28;98654.84;;;0.17;73.99
58295;BME280;45705;55.592;37.460;2023-03-13T11:18:02;98663.88;;;0.11;73.20
58295;BME280;45705;55.592;37.460;2023-03-13T11:20:35;98667.34;;;0.07;75.73
58295;BME280;45705;55.592;37.460;2023-03-13T11:34:04;98677.28;;;-0.55;79.08
58295;BME280;45705;55.592;37.460;2023-03-13T11:42:32;98687.88;;;-0.21;80.01
58295;BME280;45705;55.592;37.460;2023-03-13T12:06:05;98706.06;;;0.04;75.66
58295;BME280;45705;55.592;37.460;2023-03-13T12:08:47;98705.09;;;0.15;75.34
58295;BME280;45705;55.592;37.460;2023-03-13T12:11:39;98718.94;;;0.94;72.25
58295;BME280;45705;55.592;37.460;2023-03-13T12:14:34;98714.75;;;0.44;72.92
58295;BME280;45705;55.592;37.460;2023-03-13T12:22:31;98706.66;;;0.66;72.04
58295;BME280;45705;55.592;37.460;2023-03-13T12:25:14;98721.63;;;0.34;73.78
58295;BME280;45705;55.592;37.460;2023-03-13T12:27:47;98709.56;;;0.59;72.08
58295;BME280;45705;55.592;37.460;2023-03-13T12:30:30;98722.66;;;-0.16;72.53
58295;BME280;45705;55.592;37.460;2023-03-13T12:33:09;98722.88;;;-0.40;73.78
58295;BME280;45705;55.592;37.460;2023-03-13T12:35:43;98731.91;;;-0.24;73.97
58295;BME280;45705;55.592;37.460;2023-03-13T12:38:25;98729.75;;;-0.05;73.32
58295;BME280;45705;55.592;37.460;2023-03-13T12:43:31;98729.34;;;-0.35;75.15
58295;BME280;45705;55.592;37.460;2023-03-13T12:48:54;98732.94;;;-0.47;74.68
58295;BME280;45705;55.592;37.460;2023-03-13T12:56:44;98745.78;;;-0.66;73.41
58295;BME280;45705;55.592;37.460;2023-03-13T12:59:22;98751.63;;;-0.08;71.49
58295;BME280;45705;55.592;37.460;2023-03-13T13:01:53;98750.81;;;-0.08;70.17
58295;BME280;45705;55.592;37.460;2023-03-13T13:04:24;98745.09;;;0.27;69.56
58295;BME280;45705;55.592;37.460;2023-03-13T13:06:57;98742.06;;;-0.04;68.39
58295;BME280;45705;55.592;37.460;2023-03-13T13:12:17;98752.22;;;-0.01;68.11
58295;BME280;45705;55.592;37.460;2023-03-13T13:17:23;98764.81;;;-0.40;67.18
58295;BME280;45705;55.592;37.460;2023-03-13T13:19:54;98764.47;;;-0.27;67.62
58295;BME280;45705;55.592;37.460;2023-03-13T13:25:34;98769.25;;;-0.29;65.97
58295;BME280;45705;55.592;37.460;2023-03-13T13:30:50;98773.63;;;-0.40;65.02
58295;BME280;45705;55.592;37.460;2023-03-13T13:38:35;98775.97;;;-0.26;62.94
58295;BME280;45705;55.592;37.460;2023-03-13T13:43:41;98790.00;;;-0.53;64.42
58295;BME280;45705;55.592;37.460;2023-03-13T13:48:38;98799.47;;;-0.62;61.75
58295;BME280;45705;55.592;37.460;2023-03-13T13:53:46;98803.06;;;-0.73;59.18
58295;BME280;45705;55.592;37.460;2023-03-13T14:01:42;98802.41;;;-0.81;59.62
58295;BME280;45705;55.592;37.460;2023-03-13T14:04:23;98800.84;;;-0.93;58.35
58295;BME280;45705;55.592;37.460;2023-03-13T14:06:51;98796.06;;;-0.91;59.27
58295;BME280;45705;55.592;37.460;2023-03-13T14:11:50;98815.75;;;-0.81;58.08
58295;BME280;45705;55.592;37.460;2023-03-13T14:14:20;98809.53;;;-0.69;57.93
58295;BME280;45705;55.592;37.460;2023-03-13T14:16:49;98820.91;;;-0.91;59.57
58295;BME280;45705;55.592;37.460;2023-03-13T14:19:25;98815.19;;;-0.83;59.97
58295;BME280;45705;55.592;37.460;2023-03-13T14:22:04;98799.94;;;-0.99;61.10
58295;BME280;45705;55.592;37.460;2023-03-13T14:24:30;98826.56;;;-0.70;59.85
58295;BME280;45705;55.592;37.460;2023-03-13T14:26:56;98826.63;;;-0.99;61.21
58295;BME280;45705;55.592;37.460;2023-03-13T14:29:22;98835.03;;;-1.07;61.73
58295;BME280;45705;55.592;37.460;2023-03-13T14:31:56;98834.41;;;-1.26;63.66
58295;BME280;45705;55.592;37.460;2023-03-13T14:34:23;98837.63;;;-1.12;63.94
58295;BME280;45705;55.592;37.460;2023-03-13T14:36:51;98831.91;;;-1.04;62.86
58295;BME280;45705;55.592;37.460;2023-03-13T14:40:04;98828.69;;;-1.35;65.61
58295;BME280;45705;55.592;37.460;2023-03-13T14:42:09;98841.34;;;-1.13;64.70
58295;BME280;45705;55.592;37.460;2023-03-13T14:44:36;98839.81;;;-1.38;64.85
58295;BME280;45705;55.592;37.460;2023-03-13T14:47:06;98848.59;;;-1.26;65.79
58295;BME280;45705;55.592;37.460;2023-03-13T14:49:32;98860.72;;;-1.18;66.35
58295;BME280;45705;55.592;37.460;2023-03-13T14:52:28;98862.19;;;-1.39;65.87
58295;BME280;45705;55.592;37.460;2023-03-13T14:55:24;98867.34;;;-1.21;65.60